Time;durP1;ratioP1;P1;durP2;ratioP2;P2;SDS_P1;SDS_P2;PMS_P1;PMS_P2;Temp;Humidity;BMP_temperature;BMP_pressure;BME280_temperature;BME280_humidity;BME280_pressure;Samples;Min_cycle;Max_cycle;Signal;HPM_P1;HPM_P2
2020/12/04 00:00:44;;;;;;;15.53;10.08;;;;;;;1.11;89.10;99976.12;1758881;81;21144;-64
2020/12/04 00:03:11;;;;;;;16.42;10.78;;;;;;;1.13;89.08;99972.72;1758772;81;21657;-64
2020/12/04 00:05:39;;;;;;;16.15;10.30;;;;;;;1.12;89.05;99969.72;1758708;80;21082;-64
2020/12/04 00:08:07;;;;;;;19.05;11.48;;;;;;;1.13;89.07;99970.16;1758872;81;21073;-63
2020/12/04 00:10:35;;;;;;;15.58;10.20;;;;;;;1.13;89.00;99975.28;1759077;81;21085;-64
2020/12/04 00:13:03;;;;;;;16.48;10.50;;;;;;;1.16;88.94;99971.45;1759116;81;21120;-63
2020/12/04 00:15:32;;;;;;;15.90;11.95;;;;;;;1.15;88.99;99966.32;1759009;81;21376;-63
2020/12/04 00:18:00;;;;;;;13.70;9.18;;;;;;;1.18;89.14;99967.62;1758729;81;21097;-62
2020/12/04 00:20:28;;;;;;;15.65;10.05;;;;;;;1.21;89.00;99970.16;1758830;81;21478;-64
2020/12/04 00:22:55;;;;;;;15.08;9.43;;;;;;;1.19;88.92;99963.78;1758747;81;21066;-64
2020/12/04 00:25:23;;;;;;;13.98;8.28;;;;;;;1.18;88.91;99967.62;1758833;81;21557;-63
2020/12/04 00:27:50;;;;;;;11.97;8.58;;;;;;;1.16;89.13;99966.33;1758767;80;21265;-63
2020/12/04 00:30:18;;;;;;;13.98;9.38;;;;;;;1.15;89.08;99970.16;1758701;81;21125;-62
2020/12/04 00:32:46;;;;;;;14.33;9.83;;;;;;;1.11;89.15;99965.45;1758766;81;21050;-64
2020/12/04 00:35:14;;;;;;;14.55;10.25;;;;;;;1.13;89.33;99969.30;1758799;80;21129;-65
2020/12/04 00:37:42;;;;;;;13.20;9.38;;;;;;;1.13;89.24;99967.59;1758788;81;21105;-62
2020/12/04 00:40:10;;;;;;;15.30;9.58;;;;;;;1.14;89.38;99970.59;1758794;80;21195;-62
2020/12/04 00:42:38;;;;;;;14.43;9.50;;;;;;;1.16;89.50;99971.88;1758700;81;21494;-63
2020/12/04 00:45:07;;;;;;;12.78;9.28;;;;;;;1.20;89.47;99977.00;1758754;81;21058;-63
2020/12/04 00:47:35;;;;;;;12.90;8.93;;;;;;;1.21;89.40;99974.87;1759389;81;21287;-63
2020/12/04 00:50:03;;;;;;;12.33;8.68;;;;;;;1.22;89.33;99976.58;1764486;81;21116;-63
2020/12/04 00:52:31;;;;;;;15.90;10.15;;;;;;;1.20;89.30;99969.31;1764541;81;21448;-63
2020/12/04 00:54:59;;;;;;;13.53;9.40;;;;;;;1.21;89.46;99974.02;1764515;81;21077;-64
2020/12/04 00:57:26;;;;;;;12.18;8.60;;;;;;;1.22;89.42;99971.45;1764583;80;21057;-63
2020/12/04 00:59:55;;;;;;;15.50;9.93;;;;;;;1.21;89.39;99967.18;1764590;80;21481;-63
2020/12/04 01:02:23;;;;;;;12.13;8.50;;;;;;;1.24;89.53;99971.04;1764620;81;21116;-63
2020/12/04 01:04:50;;;;;;;14.47;9.65;;;;;;;1.27;89.55;99962.52;1764559;81;21379;-63
2020/12/04 01:07:18;;;;;;;14.33;9.90;;;;;;;1.29;89.56;99964.66;1764484;81;21069;-63
2020/12/04 01:09:46;;;;;;;16.67;9.63;;;;;;;1.27;89.43;99968.92;1764525;81;21065;-63
2020/12/04 01:12:14;;;;;;;16.60;11.25;;;;;;;1.26;89.42;99969.77;1764583;80;21482;-63
2020/12/04 01:14:42;;;;;;;16.37;11.43;;;;;;;1.24;89.46;99962.08;1764588;81;21116;-64
2020/12/04 01:17:09;;;;;;;16.95;11.40;;;;;;;1.25;89.68;99962.50;1764545;81;21477;-64
2020/12/04 01:19:37;;;;;;;16.12;10.20;;;;;;;1.30;89.72;99967.23;1764546;81;21084;-64
2020/12/04 01:22:04;;;;;;;15.03;10.43;;;;;;;1.29;89.52;99964.23;1764542;81;21049;-63
2020/12/04 01:24:32;;;;;;;13.90;9.88;;;;;;;1.29;89.60;99956.97;1764543;81;21120;-63
2020/12/04 01:27:00;;;;;;;14.55;9.03;;;;;;;1.30;89.57;99960.83;1764573;81;21172;-63
2020/12/04 01:29:27;;;;;;;14.53;8.95;;;;;;;1.31;89.57;99951.43;1764659;80;22106;-62
2020/12/04 01:31:55;;;;;;;17.60;10.23;;;;;;;1.29;89.58;99943.73;1764487;81;21085;-63
2020/12/04 01:34:23;;;;;;;12.25;8.45;;;;;;;1.31;89.62;99941.18;1764561;81;21564;-62
2020/12/04 01:36:52;;;;;;;13.55;8.93;;;;;;;1.31;89.58;99943.32;1764548;80;21164;-63
2020/12/04 01:39:20;;;;;;;16.82;11.28;;;;;;;1.28;89.46;99942.02;1764595;81;21152;-63
2020/12/04 01:41:47;;;;;;;14.78;9.40;;;;;;;1.25;89.58;99937.30;1764555;80;21204;-63
2020/12/04 01:44:15;;;;;;;15.23;10.20;;;;;;;1.23;89.70;99941.56;1764565;81;21108;-63
2020/12/04 01:46:42;;;;;;;15.85;10.10;;;;;;;1.23;89.82;99942.42;1764543;81;21116;-63
2020/12/04 01:49:11;;;;;;;11.93;7.60;;;;;;;1.23;89.80;99931.31;1760768;80;21188;-63
2020/12/04 01:51:38;;;;;;;15.25;9.10;;;;;;;1.23;89.84;99929.61;1758962;81;21474;-63
2020/12/04 01:54:06;;;;;;;17.07;10.03;;;;;;;1.18;89.77;99932.61;1758917;81;21199;-63
2020/12/04 01:56:38;;;;;;;17.82;9.63;;;;;;;1.17;90.05;99934.73;1758856;81;21133;-63
2020/12/04 01:59:05;;;;;;;15.88;9.78;;;;;;;1.20;90.28;99933.90;1758844;81;21552;-63
2020/12/04 02:01:38;;;;;;;13.78;9.35;;;;;;;1.24;90.19;99928.77;1758899;81;21077;-63
2020/12/04 02:04:09;;;;;;;15.40;10.13;;;;;;;1.27;90.07;99924.94;1759189;81;21462;-63
2020/12/04 02:06:53;;;;;;;17.45;10.40;;;;;;;1.27;90.10;99932.63;1758955;81;22290;-63
2020/12/04 02:09:30;;;;;;;17.27;10.18;;;;;;;1.27;90.07;99926.22;1758620;81;21151;-63
2020/12/04 02:12:01;;;;;;;17.17;9.63;;;;;;;1.27;90.10;99931.34;1758922;81;21045;-63
2020/12/04 02:14:29;;;;;;;14.15;8.78;;;;;;;1.26;90.06;99933.47;1758901;81;21129;-63
2020/12/04 02:17:04;;;;;;;13.58;8.58;;;;;;;1.27;90.14;99933.91;1758894;80;21077;-63
2020/12/04 02:19:38;;;;;;;16.15;10.50;;;;;;;1.30;90.30;99925.37;1758941;81;21366;-64
2020/12/04 02:22:06;;;;;;;14.68;10.05;;;;;;;1.34;90.32;99921.98;1758824;81;21077;-63
2020/12/04 02:24:33;;;;;;;15.85;9.58;;;;;;;1.34;90.12;99920.70;1758862;81;21144;-63
2020/12/04 02:27:01;;;;;;;13.05;8.45;;;;;;;1.33;89.98;99918.98;1739798;81;21998;-63
2020/12/04 02:29:28;;;;;;;15.85;9.75;;;;;;;1.33;90.00;99917.70;1758905;81;21069;-63
2020/12/04 02:31:56;;;;;;;16.20;9.93;;;;;;;1.29;89.99;99911.70;1758909;81;22094;-63
2020/12/04 02:34:24;;;;;;;15.72;10.23;;;;;;;1.28;90.12;99914.27;1758828;80;21125;-63
2020/12/04 02:36:55;;;;;;;13.72;9.95;;;;;;;1.28;90.25;99919.38;1758815;81;21145;-63
2020/12/04 02:39:23;;;;;;;14.13;9.10;;;;;;;1.30;90.25;99914.70;1758832;81;21561;-63
2020/12/04 02:41:50;;;;;;;13.28;8.58;;;;;;;1.34;90.21;99905.31;1758862;81;21176;-63
2020/12/04 02:44:18;;;;;;;13.35;9.35;;;;;;;1.38;90.18;99901.92;1758852;80;21381;-63
2020/12/04 02:46:48;;;;;;;13.75;9.40;;;;;;;1.37;90.12;99900.20;1758780;80;21078;-63
2020/12/04 02:49:15;;;;;;;13.70;9.05;;;;;;;1.37;90.06;99900.20;1758723;81;21502;-63
2020/12/04 02:51:44;;;;;;;14.80;9.60;;;;;;;1.34;90.03;99906.17;1758786;81;21125;-64
2020/12/04 02:54:12;;;;;;;14.00;9.13;;;;;;;1.36;90.15;99903.62;1758882;81;21073;-63
2020/12/04 02:56:39;;;;;;;12.60;9.23;;;;;;;1.36;90.04;99904.90;1758877;80;22190;-64
2020/12/04 02:59:07;;;;;;;14.38;9.30;;;;;;;1.33;90.15;99915.14;1758785;81;21066;-63
2020/12/04 03:01:37;;;;;;;14.38;10.43;;;;;;;1.33;90.25;99915.99;1758822;81;21093;-63
2020/12/04 03:04:05;;;;;;;13.13;9.18;;;;;;;1.35;90.19;99909.59;1758921;81;21149;-63
2020/12/04 03:06:32;;;;;;;11.30;7.87;;;;;;;1.37;90.21;99900.20;1758902;81;21581;-64
2020/12/04 03:09:01;;;;;;;14.20;10.00;;;;;;;1.40;90.19;99907.88;1758825;81;21476;-64
2020/12/04 03:11:28;;;;;;;12.40;8.28;;;;;;;1.42;90.21;99910.44;1758771;81;21085;-63
2020/12/04 03:13:56;;;;;;;13.00;8.33;;;;;;;1.43;90.08;99909.17;1758770;81;21050;-63
2020/12/04 03:16:24;;;;;;;13.20;8.10;;;;;;;1.41;90.04;99906.17;1758825;81;21128;-63
2020/12/04 03:18:51;;;;;;;14.25;8.95;;;;;;;1.43;90.10;99912.16;1758802;80;21145;-63
2020/12/04 03:21:19;;;;;;;12.78;9.40;;;;;;;1.44;90.16;99904.47;1758819;81;21214;-63
2020/12/04 03:23:46;;;;;;;13.65;9.13;;;;;;;1.48;90.19;99893.38;1758750;81;21490;-63
2020/12/04 03:26:14;;;;;;;13.68;8.45;;;;;;;1.50;89.99;99903.64;1758804;81;21140;-63
2020/12/04 03:28:42;;;;;;;11.08;7.80;;;;;;;1.50;89.93;99896.80;1758796;81;21133;-63
2020/12/04 03:31:11;;;;;;;11.97;8.48;;;;;;;1.49;89.91;99896.80;1758854;80;21481;-63
2020/12/04 03:33:38;;;;;;;11.80;8.60;;;;;;;1.50;90.00;99898.52;1758799;81;21362;-63
2020/12/04 03:36:06;;;;;;;14.15;8.88;;;;;;;1.51;90.10;99895.95;1758738;81;21057;-63
2020/12/04 03:38:34;;;;;;;12.53;8.28;;;;;;;1.52;89.95;99898.95;1758802;81;21117;-63
2020/12/04 03:41:01;;;;;;;12.28;8.10;;;;;;;1.54;89.98;99892.12;1758791;81;21129;-63
2020/12/04 03:43:28;;;;;;;12.78;9.10;;;;;;;1.56;89.92;99894.27;1758830;80;21066;-63
2020/12/04 03:45:56;;;;;;;10.80;8.08;;;;;;;1.58;90.00;99896.41;1758768;81;21260;-63
2020/12/04 03:48:24;;;;;;;13.68;8.93;;;;;;;1.61;90.02;99895.52;1758818;80;21097;-64
2020/12/04 03:50:51;;;;;;;13.83;8.28;;;;;;;1.62;90.00;99886.98;1764490;81;21116;-63
2020/12/04 03:53:19;;;;;;;12.95;8.68;;;;;;;1.66;90.07;99887.42;1764466;80;21092;-63
2020/12/04 03:55:46;;;;;;;12.05;8.43;;;;;;;1.70;89.93;99885.30;1764453;80;21704;-63
2020/12/04 03:58:14;;;;;;;10.18;7.85;;;;;;;1.72;89.88;99887.44;1764476;81;21369;-63
2020/12/04 04:00:43;;;;;;;11.43;8.45;;;;;;;1.72;89.75;99890.86;1764395;80;21164;-63
2020/12/04 04:03:10;;;;;;;12.20;8.45;;;;;;;1.72;89.80;99892.56;1764453;81;21147;-63
2020/12/04 04:05:38;;;;;;;13.25;8.73;;;;;;;1.71;89.71;99887.86;1764457;81;21053;-63
2020/12/04 04:08:06;;;;;;;12.50;9.33;;;;;;;1.72;89.69;99901.54;1764439;81;21065;-63
2020/12/04 04:10:33;;;;;;;11.93;8.05;;;;;;;1.71;89.73;99903.67;1764486;80;21196;-63
2020/12/04 04:13:01;;;;;;;13.68;9.63;;;;;;;1.71;89.91;99898.12;1764376;81;21180;-63
2020/12/04 04:15:28;;;;;;;12.58;8.93;;;;;;;1.70;89.84;99901.53;1764478;80;21089;-63
2020/12/04 04:17:59;;;;;;;12.75;9.03;;;;;;;1.71;89.92;99898.12;1728469;81;21097;-63
2020/12/04 04:20:27;;;;;;;12.45;8.85;;;;;;;1.72;89.81;99897.70;1764480;81;21069;-63
2020/12/04 04:22:54;;;;;;;12.37;8.93;;;;;;;1.73;89.93;99903.25;1764581;81;22231;-63
2020/12/04 04:25:22;;;;;;;13.60;9.48;;;;;;;1.75;90.01;99906.67;1764407;80;21561;-64
2020/12/04 04:27:49;;;;;;;12.37;8.55;;;;;;;1.74;89.90;99910.09;1765253;80;21124;-63
2020/12/04 04:30:17;;;;;;;11.97;8.90;;;;;;;1.73;89.93;99912.23;1764992;81;21505;-63
2020/12/04 04:32:44;;;;;;;12.53;9.25;;;;;;;1.74;89.92;99913.94;1764653;80;21546;-63
2020/12/04 04:35:12;;;;;;;13.50;9.25;;;;;;;1.73;89.99;99914.80;1764545;81;21377;-63
2020/12/04 04:37:43;;;;;;;10.65;8.25;;;;;;;1.73;90.01;99905.81;1764527;80;21159;-64
2020/12/04 04:40:11;;;;;;;12.78;8.48;;;;;;;1.72;90.10;99910.52;1764671;80;21588;-63
2020/12/04 04:42:38;;;;;;;12.20;8.80;;;;;;;1.70;90.15;99904.52;1764663;80;21988;-63
2020/12/04 04:45:06;;;;;;;11.95;8.65;;;;;;;1.71;90.29;99909.66;1764612;81;21046;-63
2020/12/04 04:47:33;;;;;;;12.18;8.68;;;;;;;1.67;90.28;99904.09;1764579;81;21565;-63
2020/12/04 04:50:02;;;;;;;11.80;7.87;;;;;;;1.66;90.39;99904.09;1682022;81;21169;-64
2020/12/04 04:52:29;;;;;;;11.38;8.25;;;;;;;1.65;90.50;99916.05;1758893;80;21066;-64
2020/12/04 04:54:57;;;;;;;9.38;6.92;;;;;;;1.68;90.50;99916.06;1758930;81;21570;-63
2020/12/04 04:57:25;;;;;;;10.55;7.92;;;;;;;1.70;90.62;99917.34;1758964;81;21129;-63
2020/12/04 04:59:54;;;;;;;10.00;7.30;;;;;;;1.73;90.63;99917.36;1758940;81;21534;-64
2020/12/04 05:02:22;;;;;;;11.48;8.25;;;;;;;1.76;90.65;99930.19;1758844;81;21129;-63
2020/12/04 05:04:56;;;;;;;10.88;7.95;;;;;;;1.77;90.50;99927.20;1758921;81;21196;-63
2020/12/04 05:07:28;;;;;;;;;;;;;;;1.77;90.62;99933.61;1761612;81;21596;-63
2020/12/04 05:10:16;;;;;;;13.50;10.43;;;;;;;1.77;90.62;99937.45;1759319;81;20228;-64
2020/12/04 05:12:45;;;;;;;12.25;8.85;;;;;;;1.77;90.83;99934.89;1758942;81;21367;-63
2020/12/04 05:15:24;;;;;;;12.95;9.90;;;;;;;1.79;90.79;99932.77;1758839;81;21136;-63
2020/12/04 05:18:12;;;;;;;21.02;16.32;;;;;;;1.80;90.75;99933.62;1758899;80;21149;-63
2020/12/04 05:20:47;;;;;;;19.00;14.83;;;;;;;1.84;90.70;99932.73;1758935;81;21058;-63
2020/12/04 05:23:15;;;;;;;16.05;12.23;;;;;;;1.82;90.71;99937.86;1758978;81;21066;-63
2020/12/04 05:25:47;;;;;;;12.18;10.35;;;;;;;1.83;90.71;99934.88;1758901;81;21137;-64
2020/12/04 05:28:20;;;;;;;11.20;8.83;;;;;;;1.81;90.70;99937.86;1758810;81;21160;-64
2020/12/04 05:31:05;;;;;;;10.70;8.08;;;;;;;1.82;90.62;99937.86;1721519;81;21054;-63
2020/12/04 05:33:32;;;;;;;9.83;7.75;;;;;;;1.82;90.62;99943.42;1758933;81;21125;-63
2020/12/04 05:36:00;;;;;;;11.10;8.40;;;;;;;1.80;90.74;99938.74;1758958;81;21077;-63
2020/12/04 05:38:28;;;;;;;10.25;8.00;;;;;;;1.81;90.74;99942.56;1758838;81;21147;-63
2020/12/04 05:41:10;;;;;;;9.03;7.75;;;;;;;1.82;90.69;99953.67;1758818;81;21522;-63
2020/12/04 05:43:39;;;;;;;10.80;7.90;;;;;;;1.81;90.58;99951.54;1759152;81;21101;-63
2020/12/04 05:46:19;;;;;;;11.30;8.28;;;;;;;1.78;90.70;99953.27;1758897;80;21064;-63
2020/12/04 05:48:58;;;;;;;9.65;7.03;;;;;;;1.80;90.96;99952.85;1758880;81;21053;-64
2020/12/04 05:51:33;;;;;;;9.70;7.40;;;;;;;1.84;90.95;99955.82;1729489;82;21285;-63
2020/12/04 05:54:01;;;;;;;8.93;7.37;;;;;;;1.87;90.75;99961.81;1705594;84;21194;-64
2020/12/04 05:56:36;;;;;;;9.10;6.80;;;;;;;1.90;90.81;99959.27;1705651;84;21527;-63
2020/12/04 05:59:08;;;;;;;11.30;7.30;;;;;;;1.93;90.71;99955.42;1720919;81;21572;-65
2020/12/04 06:01:37;;;;;;;8.28;6.92;;;;;;;1.93;90.53;99962.27;1761369;81;21117;-63
2020/12/04 06:04:04;;;;;;;10.25;7.80;;;;;;;1.94;90.59;99962.27;1736500;81;21515;-65
2020/12/04 06:06:32;;;;;;;9.43;7.20;;;;;;;2.00;90.59;99962.67;1761465;81;21541;-64
2020/12/04 06:09:07;;;;;;;8.95;5.97;;;;;;;2.05;90.67;99969.53;1760628;81;21223;-64
2020/12/04 06:11:44;;;;;;;10.00;7.78;;;;;;;2.13;90.48;99975.11;1750252;81;21198;-66
2020/12/04 06:14:17;;;;;;;9.53;7.05;;;;;;;2.17;90.46;99979.39;1695571;84;21186;-66
2020/12/04 06:17:00;;;;;;;9.35;6.42;;;;;;;2.25;90.40;99988.79;1696436;84;21388;-65
2020/12/04 06:19:37;;;;;;;8.83;6.22;;;;;;;2.32;90.12;99983.23;1747793;81;21198;-65
2020/12/04 06:22:09;;;;;;;9.95;8.03;;;;;;;2.37;89.97;99976.40;1743782;81;21150;-66
2020/12/04 06:24:59;;;;;;;9.08;7.03;;;;;;;2.39;89.99;99979.40;1734387;81;21619;-66
2020/12/04 06:27:46;;;;;;;8.58;6.30;;;;;;;2.45;89.72;99960.97;1752543;81;21597;-63
2020/12/04 06:30:16;;;;;;;10.08;6.83;;;;;;;2.46;89.56;99966.11;1752312;81;22241;-62
2020/12/04 06:32:49;;;;;;;8.15;6.78;;;;;;;2.51;89.46;99969.53;1751620;81;21749;-66
2020/12/04 06:35:55;;;;;;;10.18;7.47;;;;;;;2.50;89.28;99969.53;1757551;80;21858;-64
2020/12/04 06:41:44;;;;;;;10.82;8.50;;;;;;;2.53;89.14;99971.67;1839219;78;23408;-66
2020/12/04 06:44:20;;;;;;;13.18;9.90;;;;;;;2.47;89.02;99981.94;1813701;79;21229;-66
2020/12/04 06:46:53;;;;;;;11.68;8.63;;;;;;;2.49;89.25;99985.80;1813386;79;22094;-64
2020/12/04 06:49:39;;;;;;;12.90;9.45;;;;;;;2.54;89.14;99983.66;1814410;79;21091;-70
2020/12/04 06:52:20;;;;;;;11.90;9.80;;;;;;;2.58;88.97;99976.39;1815542;79;21092;-68
2020/12/04 06:54:50;;;;;;;11.35;9.03;;;;;;;2.61;88.82;99975.50;1815037;79;21166;-63
2020/12/04 06:57:23;;;;;;;12.20;9.73;;;;;;;2.63;88.83;99970.79;1814563;79;21198;-61
2020/12/04 06:59:51;;;;;;;15.45;11.15;;;;;;;2.64;88.72;99981.49;1813127;79;21509;-71
2020/12/04 07:02:23;;;;;;;15.55;11.10;;;;;;;2.67;88.63;99981.92;1817364;77;21207;-65
2020/12/04 07:04:53;;;;;;;18.92;13.13;;;;;;;2.69;88.54;99984.92;1749282;81;21569;-68
2020/12/04 07:07:30;;;;;;;15.90;12.68;;;;;;;2.73;88.51;99989.62;1792458;79;21194;-67
2020/12/04 07:10:05;;;;;;;16.40;11.45;;;;;;;2.74;88.46;99979.78;1747794;80;21218;-67
2020/12/04 07:12:35;;;;;;;11.45;9.63;;;;;;;2.74;88.36;99982.34;1770258;81;21616;-66
2020/12/04 07:15:03;;;;;;;13.93;10.15;;;;;;;2.74;88.25;99988.34;1747448;81;21183;-66
2020/12/04 07:17:33;;;;;;;15.32;11.25;;;;;;;2.74;88.17;99990.05;1770648;80;21215;-67
2020/12/04 07:20:06;;;;;;;14.87;11.57;;;;;;;2.73;88.22;99984.48;1767566;81;21524;-68
2020/12/04 07:22:37;;;;;;;17.07;12.88;;;;;;;2.74;88.40;99981.92;1772073;80;21159;-67
2020/12/04 07:25:05;;;;;;;19.48;13.85;;;;;;;2.78;88.36;99989.20;1768646;81;22122;-67
2020/12/04 07:27:33;;;;;;;15.53;12.15;;;;;;;2.86;88.36;99998.16;1734968;80;21225;-68
2020/12/04 07:30:13;;;;;;;14.58;11.65;;;;;;;2.91;88.15;99994.73;1706968;82;21193;-68
2020/12/04 07:32:50;;;;;;;16.85;12.98;;;;;;;2.95;87.99;99995.15;1770153;79;21187;-68
2020/12/04 07:35:19;;;;;;;19.17;14.25;;;;;;;3.00;87.76;99996.40;1785517;79;21620;-67
2020/12/04 07:37:48;;;;;;;15.45;12.58;;;;;;;3.02;87.50;99997.25;1750982;81;22355;-72
2020/12/04 07:40:18;;;;;;;17.80;14.50;;;;;;;3.05;87.26;99998.11;1757926;81;22266;-68
2020/12/04 07:42:51;;;;;;;16.65;13.30;;;;;;;3.08;87.04;99998.11;1731847;81;21138;-68
2020/12/04 07:45:21;;;;;;;26.17;17.15;;;;;;;3.11;86.72;100007.52;1720169;82;21226;-69
2020/12/04 07:47:49;;;;;;;21.60;15.05;;;;;;;3.13;86.68;100007.09;1725515;83;21242;-68
2020/12/04 07:50:17;;;;;;;16.37;11.60;;;;;;;3.16;86.35;100004.95;1724666;83;21392;-67
2020/12/04 07:52:50;;;;;;;16.10;10.95;;;;;;;3.15;86.07;100004.09;1692438;82;21206;-69
2020/12/04 07:55:25;;;;;;;18.55;13.18;;;;;;;3.18;86.05;100005.38;1724577;83;21147;-68
2020/12/04 07:58:07;;;;;;;19.80;14.65;;;;;;;3.22;85.75;99999.33;1692870;82;21162;-68
2020/12/04 08:00:36;;;;;;;15.23;11.03;;;;;;;3.25;85.93;100006.19;1716108;82;21187;-67
2020/12/04 08:03:15;;;;;;;15.65;10.93;;;;;;;3.32;85.70;100002.31;1723109;83;21391;-66
2020/12/04 08:05:43;;;;;;;13.05;10.55;;;;;;;3.34;85.45;100009.59;1724474;83;21189;-68
2020/12/04 08:08:18;;;;;;;16.45;11.75;;;;;;;3.41;85.11;100019.41;1723746;83;21201;-68
2020/12/04 08:10:46;;;;;;;14.93;11.40;;;;;;;3.38;85.08;100010.02;1725494;83;21210;-66
2020/12/04 08:13:15;;;;;;;15.80;12.63;;;;;;;3.41;84.95;100012.98;1723861;83;21170;-70
2020/12/04 08:15:47;;;;;;;15.30;12.07;;;;;;;3.45;85.05;100016.83;1692692;82;22012;-71
2020/12/04 08:18:15;;;;;;;16.23;12.58;;;;;;;3.55;84.81;100016.37;1726090;82;21201;-71
2020/12/04 08:20:48;;;;;;;15.95;12.07;;;;;;;3.61;84.34;100016.32;1654797;82;21188;-65
2020/12/04 08:23:23;;;;;;;18.42;12.37;;;;;;;3.59;83.98;100011.64;1699776;81;21176;-64
2020/12/04 08:25:52;;;;;;;15.95;12.47;;;;;;;3.58;84.12;100009.93;1730424;81;21494;-69
2020/12/04 08:28:21;;;;;;;17.37;12.37;;;;;;;3.60;84.18;100004.75;1730226;82;21405;-71
2020/12/04 08:30:51;;;;;;;17.82;12.70;;;;;;;3.64;84.18;100010.31;1724283;83;21153;-65
2020/12/04 08:33:18;;;;;;;15.72;12.93;;;;;;;3.71;84.08;100009.00;1724188;83;21183;-68
2020/12/04 08:35:49;;;;;;;16.20;12.68;;;;;;;3.75;83.87;100006.84;1727351;81;21216;-72
2020/12/04 08:38:24;;;;;;;17.15;13.10;;;;;;;3.78;83.77;100002.11;1737556;81;21563;-69
2020/12/04 08:40:55;;;;;;;14.15;11.03;;;;;;;3.78;83.51;100004.69;1750881;79;21303;-69
2020/12/04 08:43:26;;;;;;;16.32;11.97;;;;;;;3.77;83.60;100005.55;1767506;80;21178;-69
2020/12/04 08:45:57;;;;;;;16.20;12.25;;;;;;;3.76;83.65;100009.84;1770106;79;21167;-69
2020/12/04 08:48:29;;;;;;;14.25;10.95;;;;;;;3.79;83.72;100007.69;1779627;79;21181;-68
2020/12/04 08:51:06;;;;;;;15.38;11.60;;;;;;;3.79;83.73;100007.25;1784191;79;21632;-68
2020/12/04 08:53:37;;;;;;;17.42;12.75;;;;;;;3.82;83.69;100001.20;1777199;79;22699;-68
2020/12/04 08:56:07;;;;;;;14.78;11.22;;;;;;;3.85;83.68;100005.05;1767228;81;21027;-71
2020/12/04 08:58:36;;;;;;;17.17;12.35;;;;;;;3.91;83.46;100000.31;1784321;79;21183;-70
2020/12/04 09:01:04;;;;;;;18.87;12.73;;;;;;;3.95;83.59;99990.42;1773136;79;21179;-68
2020/12/04 09:03:33;;;;;;;15.23;11.57;;;;;;;3.95;83.14;100000.29;1760540;79;21130;-68
2020/12/04 09:06:03;;;;;;;12.37;9.45;;;;;;;3.92;83.08;99995.59;1740014;81;21695;-68
2020/12/04 09:08:31;;;;;;;13.50;10.48;;;;;;;3.84;83.31;99996.91;1738214;82;21239;-65
2020/12/04 09:10:59;;;;;;;13.30;10.32;;;;;;;3.83;83.57;99999.48;1762985;79;21606;-69
2020/12/04 09:13:27;;;;;;;17.80;11.20;;;;;;;3.85;83.71;99999.91;1777542;80;21208;-66
2020/12/04 09:15:55;;;;;;;13.62;10.05;;;;;;;3.88;83.59;99993.89;1776729;80;21551;-66
2020/12/04 09:18:23;;;;;;;15.43;11.50;;;;;;;3.90;83.63;100000.74;1767802;80;21377;-69
2020/12/04 09:20:51;;;;;;;15.58;11.08;;;;;;;3.90;83.63;99995.59;1770207;80;21158;-67
2020/12/04 09:23:20;;;;;;;14.45;10.10;;;;;;;3.93;83.63;99998.59;1760586;79;21195;-68
2020/12/04 09:25:49;;;;;;;13.15;9.73;;;;;;;3.98;83.78;99998.98;1759693;79;21206;-67
2020/12/04 09:28:18;;;;;;;15.72;11.88;;;;;;;4.02;83.41;99996.79;1745769;80;21203;-66
2020/12/04 09:30:51;;;;;;;17.67;14.15;;;;;;;3.98;83.50;100004.14;1765773;81;21217;-65
2020/12/04 09:33:18;;;;;;;15.80;11.68;;;;;;;3.98;83.78;99996.84;1768355;81;21215;-66
2020/12/04 09:35:51;;;;;;;13.55;10.35;;;;;;;4.00;83.64;99995.94;1753196;79;21134;-69
2020/12/04 09:38:20;;;;;;;13.22;9.70;;;;;;;4.04;83.81;99995.50;1776497;79;21160;-63
2020/12/04 09:40:52;;;;;;;16.37;11.05;;;;;;;4.05;83.75;99992.91;1774207;79;21108;-64
2020/12/04 09:43:34;;;;;;;18.62;11.43;;;;;;;4.05;83.79;99993.34;1782673;79;21354;-68
2020/12/04 09:46:04;;;;;;;17.27;10.58;;;;;;;4.09;84.05;99987.31;1753342;79;21186;-66
2020/12/04 09:48:34;;;;;;;20.52;14.30;;;;;;;4.13;83.90;99989.02;1788204;79;21165;-68
2020/12/04 09:51:08;;;;;;;15.10;9.95;;;;;;;4.11;83.73;99985.16;1778692;79;21236;-68
2020/12/04 09:53:36;;;;;;;18.17;11.18;;;;;;;4.06;83.92;99977.03;1780566;79;21228;-66
2020/12/04 09:56:06;;;;;;;12.53;9.98;;;;;;;4.03;84.43;99980.91;1786211;79;21383;-66
2020/12/04 09:58:35;;;;;;;15.95;11.30;;;;;;;4.06;84.52;99992.05;1774280;79;21220;-65
2020/12/04 10:01:04;;;;;;;20.32;11.03;;;;;;;4.07;84.45;99988.61;1771238;81;21115;-64
2020/12/04 10:03:33;;;;;;;16.27;10.68;;;;;;;4.09;84.71;99988.61;1780897;79;21627;-66
2020/12/04 10:06:03;;;;;;;13.13;9.88;;;;;;;4.13;84.79;99982.14;1766263;80;21138;-64
2020/12/04 10:08:31;;;;;;;15.40;10.70;;;;;;;4.15;84.69;99983.42;1719733;81;23305;-63
2020/12/04 10:11:01;;;;;;;14.63;10.32;;;;;;;4.15;84.81;99986.85;1770906;81;21179;-63
2020/12/04 10:13:28;;;;;;;20.17;12.28;;;;;;;4.20;84.96;99980.82;1770988;81;21178;-65
2020/12/04 10:16:05;;;;;;;15.70;10.45;;;;;;;4.23;84.76;99982.91;1770938;81;21158;-67
2020/12/04 10:18:35;;;;;;;18.60;12.10;;;;;;;4.24;84.63;99976.05;1767509;80;21199;-64
2020/12/04 10:21:02;;;;;;;18.40;12.35;;;;;;;4.22;84.78;99975.20;1768531;80;21450;-66
2020/12/04 10:23:31;;;;;;;17.20;10.95;;;;;;;4.22;84.82;99973.48;1770775;81;21190;-66
2020/12/04 10:26:00;;;;;;;16.32;10.15;;;;;;;4.21;85.01;99971.77;1769366;81;21218;-67
2020/12/04 10:28:32;;;;;;;14.68;10.93;;;;;;;4.26;85.09;99967.88;1770210;81;21178;-71
2020/12/04 10:31:01;;;;;;;14.98;11.05;;;;;;;4.26;84.84;99973.88;1770435;80;21186;-69
2020/12/04 10:33:28;;;;;;;16.67;11.50;;;;;;;4.27;85.23;99981.17;1771809;81;21343;-67
2020/12/04 10:35:56;;;;;;;15.18;10.90;;;;;;;4.30;85.23;99981.16;1770749;79;21138;-64
2020/12/04 10:38:24;;;;;;;12.15;8.55;;;;;;;4.28;85.01;99975.16;1769018;80;21591;-64
2020/12/04 10:40:51;;;;;;;16.27;10.08;;;;;;;4.23;84.93;99981.62;1769685;80;21151;-66
2020/12/04 10:43:21;;;;;;;12.53;9.35;;;;;;;4.18;85.16;99977.40;1743961;79;21213;-65
2020/12/04 10:45:49;;;;;;;12.07;9.15;;;;;;;4.19;85.44;99980.40;1765336;79;21702;-68
2020/12/04 10:48:19;;;;;;;12.60;8.90;;;;;;;4.21;85.51;99978.20;1769124;80;21202;-70
2020/12/04 10:50:49;;;;;;;12.35;8.70;;;;;;;4.27;85.46;99982.03;1766668;81;21181;-67
2020/12/04 10:53:18;;;;;;;11.20;8.10;;;;;;;4.33;85.36;99987.14;1767620;81;21210;-65
2020/12/04 10:55:45;;;;;;;13.95;8.08;;;;;;;4.38;85.00;99981.95;1767288;80;21615;-67
2020/12/04 10:58:21;;;;;;;12.25;8.90;;;;;;;4.39;84.87;99981.95;1768751;81;21199;-67
2020/12/04 11:00:55;;;;;;;12.98;10.00;;;;;;;4.36;84.80;99987.55;1767742;79;21126;-66
2020/12/04 11:03:35;;;;;;;10.25;8.20;;;;;;;4.39;85.10;99982.38;1744484;80;21177;-70
2020/12/04 11:05:56;;;;;;;12.58;9.48;;;;;;;4.46;84.74;99980.16;1758740;80;21194;-68
2020/12/04 11:08:25;;;;;;;10.90;8.05;;;;;;;4.48;84.36;99971.55;1738515;81;21458;-68
2020/12/04 11:10:52;;;;;;;11.83;7.97;;;;;;;4.47;84.25;99972.85;1755055;81;22472;-65
2020/12/04 11:13:24;;;;;;;10.80;8.73;;;;;;;4.44;84.05;99963.86;1758059;81;21783;-66
2020/12/04 11:15:52;;;;;;;13.30;9.35;;;;;;;4.33;83.86;99965.25;1757303;81;21177;-67
2020/12/04 11:18:20;;;;;;;9.45;7.60;;;;;;;4.23;84.03;99958.45;1768584;79;21219;-67
2020/12/04 11:20:49;;;;;;;9.53;7.67;;;;;;;4.17;84.05;99951.23;1769023;81;21087;-66
2020/12/04 11:23:16;;;;;;;11.18;7.53;;;;;;;4.06;84.05;99958.59;1779512;79;22102;-66
2020/12/04 11:25:44;;;;;;;11.45;8.75;;;;;;;3.99;84.42;99956.09;1768696;80;21176;-65
2020/12/04 11:28:13;;;;;;;11.10;8.73;;;;;;;3.89;84.42;99948.85;1769627;80;21679;-66
2020/12/04 11:30:41;;;;;;;12.10;8.90;;;;;;;3.82;84.81;99952.31;1767789;80;22056;-66
2020/12/04 11:33:09;;;;;;;11.05;8.48;;;;;;;3.77;84.97;99953.66;1747942;80;21290;-65
2020/12/04 11:35:39;;;;;;;11.68;8.23;;;;;;;3.74;85.28;99951.53;1725902;81;21203;-66
2020/12/04 11:38:08;;;;;;;10.68;8.05;;;;;;;3.74;85.35;99942.52;1726371;81;21138;-66
2020/12/04 11:40:36;;;;;;;11.93;9.45;;;;;;;3.71;85.26;99948.54;1769133;79;21126;-67
2020/12/04 11:43:03;;;;;;;9.05;6.78;;;;;;;3.66;85.52;99959.71;1775077;79;21674;-65
2020/12/04 11:45:32;;;;;;;10.68;7.65;;;;;;;3.68;85.75;99947.70;1771241;81;21095;-68